Time;durP1;ratioP1;P1;durP2;ratioP2;P2;SDS_P1;SDS_P2;PMS_P1;PMS_P2;Temp;Humidity;BMP_temperature;BMP_pressure;BME280_temperature;BME280_humidity;BME280_pressure;Samples;Min_cycle;Max_cycle;Signal;HPM_P1;HPM_P2
2022/12/18 00:00:40;;;;;;;78.18;34.95;;;-3.70;99.90;;;;;;5060978;28;20707;-74
2022/12/18 00:03:06;;;;;;;90.88;36.90;;;-3.40;99.90;;;;;;5050156;28;20036;-74
2022/12/18 00:05:31;;;;;;;81.20;35.03;;;-3.40;99.90;;;;;;5051087;28;20408;-76
2022/12/18 00:07:57;;;;;;;81.20;36.28;;;-3.20;99.90;;;;;;5050572;28;20044;-75
2022/12/18 00:10:23;;;;;;;80.28;32.83;;;-3.30;99.90;;;;;;5044908;28;20052;-75
2022/12/18 00:12:48;;;;;;;77.70;33.25;;;-3.30;99.90;;;;;;5036719;28;20152;-75
2022/12/18 00:15:14;;;;;;;86.63;35.13;;;-3.30;99.90;;;;;;5043169;28;20079;-74
2022/12/18 00:17:40;;;;;;;76.57;32.20;;;-1.10;99.90;;;;;;5029204;28;20160;-74
2022/12/18 00:20:06;;;;;;;81.10;34.00;;;-3.40;99.90;;;;;;5027740;28;20041;-75
2022/12/18 00:22:32;;;;;;;81.45;35.40;;;-3.20;99.90;;;;;;5027290;28;20098;-74
2022/12/18 00:24:58;;;;;;;75.20;34.28;;;-1.80;99.90;;;;;;5026761;28;20053;-75
2022/12/18 00:27:23;;;;;;;74.45;32.28;;;-1.70;99.90;;;;;;5042863;28;20073;-75
2022/12/18 00:29:49;;;;;;;82.22;36.38;;;-0.80;99.90;;;;;;5031000;28;20135;-76
2022/12/18 00:32:15;;;;;;;74.95;33.00;;;-3.40;99.90;;;;;;5031488;28;20040;-75
2022/12/18 00:34:40;;;;;;;80.95;33.97;;;-3.50;99.90;;;;;;5047914;28;20041;-75
2022/12/18 00:37:06;;;;;;;78.13;33.58;;;-3.40;99.90;;;;;;5035990;28;20044;-75
2022/12/18 00:39:32;;;;;;;84.57;34.38;;;-2.90;99.90;;;;;;5038579;28;20865;-75
2022/12/18 00:44:44;;;;;;;73.35;33.70;;;-1.70;99.90;;;;;;5059015;28;20047;-75
2022/12/18 00:47:09;;;;;;;85.03;34.40;;;-3.10;99.90;;;;;;5066575;28;20284;-75
2022/12/18 00:49:35;;;;;;;80.50;32.78;;;-3.50;99.90;;;;;;5057964;28;20514;-75
2022/12/18 00:52:00;;;;;;;69.75;30.08;;;-1.30;99.90;;;;;;5031026;28;20451;-76
2022/12/18 00:54:26;;;;;;;82.68;31.52;;;-3.70;99.90;;;;;;5022235;28;20044;-75
2022/12/18 00:56:52;;;;;;;75.72;31.95;;;-3.40;99.90;;;;;;5053138;28;20076;-75
2022/12/18 00:59:19;;;;;;;75.82;32.33;;;-1.90;99.90;;;;;;5034518;28;20041;-75
2022/12/18 01:01:45;;;;;;;81.72;32.80;;;-3.90;99.90;;;;;;5053913;28;20496;-74
2022/12/18 01:04:11;;;;;;;77.32;33.53;;;-2.30;99.90;;;;;;5060842;28;20045;-74
2022/12/18 01:06:37;;;;;;;78.05;33.30;;;-3.60;99.90;;;;;;5052068;28;20094;-74
2022/12/18 01:09:04;;;;;;;81.13;34.13;;;-1.00;99.90;;;;;;5051862;28;20115;-74
2022/12/18 01:11:30;;;;;;;81.38;32.08;;;-3.30;99.90;;;;;;5039189;28;20060;-73
2022/12/18 01:13:59;;;;;;;81.85;33.28;;;-3.50;99.90;;;;;;5042907;28;20040;-74
2022/12/18 01:16:25;;;;;;;68.45;30.27;;;-3.70;99.90;;;;;;5032371;28;20064;-73
2022/12/18 01:18:53;;;;;;;74.65;30.05;;;-4.00;99.90;;;;;;5055339;28;20049;-74
2022/12/18 01:21:19;;;;;;;75.57;31.33;;;-3.70;99.90;;;;;;5081310;28;20542;-74
2022/12/18 01:23:46;;;;;;;77.22;32.35;;;-3.80;99.90;;;;;;5055735;28;20051;-74
2022/12/18 01:26:16;;;;;;;74.53;30.88;;;-3.70;99.90;;;;;;5048834;28;20041;-74
2022/12/18 01:28:43;;;;;;;78.05;33.20;;;-3.70;99.90;;;;;;5038519;28;20392;-74
2022/12/18 01:31:21;;;;;;;74.97;33.40;;;-3.80;99.90;;;;;;5053522;28;20041;-74
2022/12/18 01:33:47;;;;;;;67.55;29.40;;;-3.60;99.90;;;;;;5050922;28;20037;-74
2022/12/18 01:36:24;;;;;;;71.20;31.80;;;-3.80;99.90;;;;;;5051304;28;20029;-73
2022/12/18 01:38:50;;;;;;;63.72;29.88;;;-3.70;99.90;;;;;;5053388;28;20049;-73
2022/12/18 01:41:18;;;;;;;69.28;31.58;;;-2.50;99.90;;;;;;5056698;28;20040;-73
2022/12/18 01:43:59;;;;;;;67.25;29.08;;;-3.90;99.90;;;;;;5034330;28;20613;-73
2022/12/18 01:46:26;;;;;;;73.65;30.20;;;-3.90;99.90;;;;;;5056728;28;20425;-76
2022/12/18 01:49:00;;;;;;;73.47;31.13;;;-4.10;99.90;;;;;;5035323;28;20045;-73
2022/12/18 01:51:29;;;;;;;73.05;29.48;;;-3.80;99.90;;;;;;5049329;28;20508;-73
2022/12/18 01:53:56;;;;;;;70.32;30.98;;;-1.90;99.90;;;;;;5052744;28;20040;-73
2022/12/18 01:56:22;;;;;;;66.03;28.02;;;-4.10;99.90;;;;;;5049195;28;20124;-74
2022/12/18 01:59:02;;;;;;;68.28;30.25;;;-1.40;99.90;;;;;;5056329;28;20040;-75
2022/12/18 02:01:29;;;;;;;71.20;28.90;;;-3.90;99.90;;;;;;5034097;28;20404;-74
2022/12/18 02:03:55;;;;;;;63.88;28.63;;;-4.10;99.90;;;;;;5054751;28;20480;-73
2022/12/18 02:06:41;;;;;;;72.95;30.15;;;-3.90;99.90;;;;;;5031129;28;20056;-74
2022/12/18 02:09:28;;;;;;;73.20;29.92;;;-4.10;99.90;;;;;;5051977;28;20044;-74
2022/12/18 02:12:09;;;;;;;68.03;27.77;;;-4.00;99.90;;;;;;5051985;28;20049;-74
2022/12/18 02:14:42;;;;;;;69.05;29.65;;;-4.00;99.90;;;;;;5054961;28;20044;-74
2022/12/18 02:17:12;;;;;;;77.00;30.63;;;-4.50;99.90;;;;;;5047788;28;20055;-74
2022/12/18 02:19:59;;;;;;;66.80;29.23;;;-4.00;99.90;;;;;;5050878;28;20080;-73
2022/12/18 02:22:48;;;;;;;67.82;28.05;;;-4.10;99.90;;;;;;5087506;28;20128;-74
2022/12/18 02:25:16;;;;;;;64.00;28.95;;;-4.10;99.90;;;;;;5050475;28;20107;-74
2022/12/18 02:27:46;;;;;;;67.93;29.08;;;-4.10;99.90;;;;;;5049494;28;20041;-73
2022/12/18 02:30:12;;;;;;;63.90;27.77;;;-4.30;99.90;;;;;;5034793;28;20044;-74
2022/12/18 02:32:43;;;;;;;66.85;27.42;;;-3.40;99.90;;;;;;5040797;28;20036;-75
2022/12/18 02:35:14;;;;;;;70.15;29.70;;;-5.40;99.90;;;;;;5053167;28;20041;-74
2022/12/18 02:37:44;;;;;;;70.45;29.10;;;-3.50;99.90;;;;;;5046794;28;20032;-74
2022/12/18 02:40:12;;;;;;;66.90;29.38;;;-1.70;99.90;;;;;;5050540;28;20242;-74
2022/12/18 02:42:37;;;;;;;69.88;29.50;;;-3.60;99.90;;;;;;5062578;28;20041;-74
2022/12/18 02:45:04;;;;;;;64.85;29.20;;;-4.30;99.90;;;;;;5052167;28;20102;-75
2022/12/18 02:47:36;;;;;;;62.50;29.70;;;-4.20;99.90;;;;;;5047539;28;20044;-74
2022/12/18 02:50:20;;;;;;;67.90;29.92;;;-4.30;99.90;;;;;;5053713;28;20039;-74
2022/12/18 02:53:24;;;;;;;71.40;29.73;;;-4.10;99.90;;;;;;5049538;28;20110;-74
2022/12/18 02:56:14;;;;;;;66.55;28.88;;;-4.20;99.90;;;;;;5028794;28;20068;-74
2022/12/18 02:58:49;;;;;;;68.82;30.52;;;-4.30;99.90;;;;;;5045190;28;20048;-74
2022/12/18 03:01:33;;;;;;;71.20;30.73;;;-4.30;99.90;;;;;;5050513;28;20436;-75
2022/12/18 03:04:09;;;;;;;66.63;29.70;;;-3.80;99.90;;;;;;5057096;28;20044;-73
2022/12/18 03:06:48;;;;;;;69.75;30.88;;;-4.30;99.90;;;;;;5033925;28;20053;-74
2022/12/18 03:09:22;;;;;;;67.97;31.27;;;-4.40;99.90;;;;;;5064524;28;20083;-74
2022/12/18 03:14:43;;;;;;;71.75;31.00;;;-4.40;99.90;;;;;;5043777;28;20445;-74
2022/12/18 03:17:13;;;;;;;70.70;29.70;;;-4.30;99.90;;;;;;5062625;28;20398;-74
2022/12/18 03:19:41;;;;;;;72.65;30.23;;;-4.40;99.90;;;;;;5047509;28;20512;-73
2022/12/18 03:22:08;;;;;;;74.35;32.17;;;-3.40;99.90;;;;;;5043272;28;20124;-75
2022/12/18 03:24:38;;;;;;;68.35;29.52;;;-4.60;99.90;;;;;;5029150;28;20052;-74
2022/12/18 03:27:10;;;;;;;70.40;31.60;;;-4.50;99.90;;;;;;5030980;28;20069;-74
2022/12/18 03:29:43;;;;;;;72.63;30.67;;;-4.50;99.90;;;;;;5047984;28;20045;-74
2022/12/18 03:32:19;;;;;;;71.70;32.33;;;-2.70;99.90;;;;;;5045826;28;20410;-74
2022/12/18 03:34:48;;;;;;;69.97;30.52;;;-4.60;99.90;;;;;;5029968;28;20369;-74
2022/12/18 03:37:14;;;;;;;73.82;32.50;;;-2.20;99.90;;;;;;5034326;28;20120;-73
2022/12/18 03:39:40;;;;;;;75.05;29.75;;;-4.60;99.90;;;;;;5030401;28;20131;-73
2022/12/18 03:42:28;;;;;;;72.22;30.27;;;-4.70;99.90;;;;;;5049438;28;20041;-74
2022/12/18 03:45:10;;;;;;;65.22;28.88;;;-5.00;99.90;;;;;;5042727;28;20044;-73
2022/12/18 03:47:44;;;;;;;76.43;32.08;;;-3.40;99.90;;;;;;5050063;28;20401;-73
2022/12/18 03:50:18;;;;;;;;;;;-4.70;99.90;;;;;;5045266;28;20049;-74
2022/12/18 03:52:52;;;;;;;65.75;28.05;;;-4.60;99.90;;;;;;5047326;28;20376;-74
2022/12/18 03:55:20;;;;;;;65.70;29.40;;;-5.90;99.90;;;;;;5047905;28;20060;-75
2022/12/18 03:57:47;;;;;;;71.10;30.88;;;-4.80;99.90;;;;;;5044885;28;20044;-74
2022/12/18 04:00:15;;;;;;;64.03;27.42;;;-5.70;99.90;;;;;;5046243;28;20496;-74
2022/12/18 04:02:54;;;;;;;64.93;28.35;;;-4.70;99.90;;;;;;5046509;28;20120;-73
2022/12/18 04:05:22;;;;;;;67.88;27.83;;;-4.90;99.90;;;;;;5046299;28;20424;-74
2022/12/18 04:07:49;;;;;;;66.70;29.73;;;-2.90;99.90;;;;;;5053091;28;20048;-74
2022/12/18 04:10:16;;;;;;;65.15;28.45;;;-3.90;99.90;;;;;;5048380;28;20052;-73
2022/12/18 04:12:42;;;;;;;62.63;27.00;;;-4.70;99.90;;;;;;5047723;28;20139;-74
2022/12/18 04:15:09;;;;;;;66.45;28.05;;;-4.80;99.90;;;;;;5048092;28;20572;-74
2022/12/18 04:17:36;;;;;;;68.63;27.58;;;-4.50;99.90;;;;;;5048320;28;20079;-74
2022/12/18 04:20:02;;;;;;;63.90;26.15;;;-3.80;99.90;;;;;;5033785;28;20030;-73
2022/12/18 04:22:28;;;;;;;58.75;25.55;;;-4.40;99.90;;;;;;5028252;28;20068;-74
2022/12/18 04:24:53;;;;;;;65.00;27.10;;;-4.90;99.90;;;;;;5040704;28;20136;-74
2022/12/18 04:27:19;;;;;;;63.30;25.67;;;-4.90;99.90;;;;;;5045565;28;20045;-74
2022/12/18 04:29:45;;;;;;;61.13;26.35;;;-5.10;99.90;;;;;;5046379;28;20485;-74
2022/12/18 04:32:10;;;;;;;62.13;25.05;;;-4.90;99.90;;;;;;5046691;28;20033;-75
2022/12/18 04:34:36;;;;;;;66.13;28.33;;;-4.80;99.90;;;;;;5046079;28;20515;-74
2022/12/18 04:37:02;;;;;;;60.75;27.70;;;-4.80;99.90;;;;;;5042069;28;20086;-73
2022/12/18 04:39:28;;;;;;;61.75;25.58;;;-4.90;99.90;;;;;;5049726;28;20119;-73
2022/12/18 04:41:53;;;;;;;62.67;25.58;;;-4.80;99.90;;;;;;5028359;28;20120;-74
2022/12/18 04:44:19;;;;;;;54.47;25.92;;;-4.70;99.90;;;;;;5046687;28;20311;-73
2022/12/18 04:46:45;;;;;;;63.83;25.77;;;-5.30;99.90;;;;;;5045754;28;20037;-75
2022/12/18 04:49:10;;;;;;;63.53;25.48;;;-5.20;99.90;;;;;;5078061;28;20129;-74
2022/12/18 04:51:37;;;;;;;62.35;24.80;;;-5.00;99.90;;;;;;5052710;28;20044;-74
2022/12/18 04:54:03;;;;;;;63.78;25.70;;;-4.30;99.90;;;;;;5050687;28;20395;-74
2022/12/18 04:56:30;;;;;;;55.70;24.63;;;-4.70;99.90;;;;;;5046438;28;20052;-75
2022/12/18 04:58:56;;;;;;;58.05;24.70;;;-4.90;99.90;;;;;;5045035;28;20037;-74
2022/12/18 05:01:21;;;;;;;61.20;25.10;;;-4.80;99.90;;;;;;5047430;28;20114;-75
2022/12/18 05:03:47;;;;;;;57.17;26.00;;;-5.00;99.90;;;;;;5046176;28;20040;-73
2022/12/18 05:06:14;;;;;;;53.92;24.48;;;-5.10;99.90;;;;;;5046337;28;20045;-74
2022/12/18 05:08:40;;;;;;;61.50;25.35;;;-5.10;99.90;;;;;;5029090;28;20037;-75
2022/12/18 05:11:11;;;;;;;59.63;23.48;;;-5.10;99.90;;;;;;5042747;28;20041;-75
2022/12/18 05:13:37;;;;;;;56.22;25.50;;;-5.10;99.90;;;;;;5035520;28;20029;-73
2022/12/18 05:16:04;;;;;;;58.08;24.35;;;-5.20;99.90;;;;;;5044109;28;20128;-74
2022/12/18 05:18:30;;;;;;;57.35;24.77;;;-7.20;99.90;;;;;;5040845;28;20258;-73
2022/12/18 05:20:55;;;;;;;60.35;23.83;;;-5.00;99.90;;;;;;5051660;28;20068;-74
2022/12/18 05:23:23;;;;;;;62.22;23.45;;;-5.10;99.90;;;;;;5044142;28;20063;-74
2022/12/18 05:25:54;;;;;;;67.60;25.55;;;-4.10;99.90;;;;;;5047793;28;20053;-74
2022/12/18 05:28:21;;;;;;;54.60;22.35;;;-5.10;99.90;;;;;;5042412;28;20038;-73
2022/12/18 05:30:51;;;;;;;54.20;23.73;;;-4.10;99.90;;;;;;5048490;28;20069;-73
2022/12/18 05:33:18;;;;;;;50.42;21.80;;;-5.20;99.90;;;;;;5052137;28;20784;-75
2022/12/18 05:35:50;;;;;;;54.13;22.88;;;-5.10;99.90;;;;;;5052403;28;20041;-73
2022/12/18 05:38:15;;;;;;;55.65;22.95;;;-5.20;99.90;;;;;;5056043;28;20045;-74
2022/12/18 05:40:43;;;;;;;60.83;24.90;;;-5.00;99.90;;;;;;5051032;28;20094;-74
2022/12/18 05:43:09;;;;;;;59.58;25.00;;;-5.30;99.90;;;;;;5030734;28;20045;-74
2022/12/18 05:45:40;;;;;;;56.97;22.63;;;-5.20;99.90;;;;;;5051644;28;20040;-74
2022/12/18 05:48:06;;;;;;;57.40;23.77;;;-5.10;99.90;;;;;;5034913;28;20045;-74
2022/12/18 05:50:40;;;;;;;56.10;22.90;;;-5.50;99.90;;;;;;5081497;28;20481;-73
2022/12/18 05:53:06;;;;;;;55.08;22.40;;;-5.20;99.90;;;;;;5042345;28;20037;-74
2022/12/18 05:55:37;;;;;;;57.65;22.70;;;-5.00;99.90;;;;;;5045768;28;20120;-74
2022/12/18 05:58:04;;;;;;;54.67;22.98;;;-2.60;99.90;;;;;;5039078;28;20034;-75
2022/12/18 06:00:32;;;;;;;55.72;22.40;;;-5.20;99.90;;;;;;5053604;28;20128;-74
2022/12/18 06:02:59;;;;;;;56.50;22.27;;;-3.20;99.90;;;;;;5037737;28;20036;-74
2022/12/18 06:05:25;;;;;;;54.88;23.58;;;-3.20;99.90;;;;;;5051922;28;20041;-73
2022/12/18 06:07:51;;;;;;;50.03;24.23;;;-5.40;99.90;;;;;;5084969;28;20059;-73
2022/12/18 06:10:17;;;;;;;53.03;22.92;;;-3.40;99.90;;;;;;5046326;28;20473;-73
2022/12/18 06:12:43;;;;;;;55.95;23.38;;;-5.20;99.90;;;;;;5047840;28;20044;-73
2022/12/18 06:15:09;;;;;;;51.35;23.23;;;-5.30;99.90;;;;;;5024741;28;20128;-75
2022/12/18 06:17:36;;;;;;;54.78;21.60;;;-5.30;99.90;;;;;;5043312;28;20124;-74
2022/12/18 06:20:04;;;;;;;49.83;21.92;;;-5.00;99.90;;;;;;5041594;28;20047;-74
2022/12/18 06:22:33;;;;;;;57.63;21.73;;;-5.20;99.90;;;;;;5041737;28;20056;-73
2022/12/18 06:24:59;;;;;;;58.65;22.33;;;-5.30;99.90;;;;;;5043419;28;20049;-74
2022/12/18 06:27:25;;;;;;;56.08;20.50;;;-5.20;99.90;;;;;;5042695;28;20510;-74
2022/12/18 06:29:51;;;;;;;55.20;20.92;;;-4.20;99.90;;;;;;5039763;28;20477;-74
2022/12/18 06:32:16;;;;;;;51.78;22.42;;;-5.30;99.90;;;;;;5059083;28;20069;-73
2022/12/18 06:34:42;;;;;;;53.42;21.60;;;-5.30;99.90;;;;;;5037520;28;20485;-73
2022/12/18 06:37:09;;;;;;;50.97;22.42;;;-5.50;99.90;;;;;;5041936;28;20106;-73
2022/12/18 06:39:34;;;;;;;55.05;20.20;;;-5.30;99.90;;;;;;5046788;28;20033;-73
2022/12/18 06:42:00;;;;;;;49.88;20.95;;;-5.40;99.90;;;;;;5031161;28;20042;-73
2022/12/18 06:44:26;;;;;;;45.58;20.23;;;-5.30;99.90;;;;;;5038951;28;20034;-74
2022/12/18 06:46:52;;;;;;;48.67;20.75;;;-5.30;99.90;;;;;;5043139;28;20041;-73
2022/12/18 06:49:17;;;;;;;47.63;19.95;;;-5.40;99.90;;;;;;5041821;28;20481;-72
2022/12/18 06:51:43;;;;;;;45.58;18.75;;;-5.50;99.90;;;;;;5049494;28;20029;-74
2022/12/18 06:54:09;;;;;;;48.05;19.08;;;-5.30;99.90;;;;;;5037463;28;20277;-71
2022/12/18 06:56:34;;;;;;;42.05;19.02;;;-5.20;99.90;;;;;;5048573;28;20034;-73
2022/12/18 06:59:00;;;;;;;42.45;17.80;;;-5.50;99.90;;;;;;5049931;28;20044;-73
2022/12/18 07:01:26;;;;;;;36.92;18.02;;;-3.80;99.90;;;;;;5047423;28;20037;-72
2022/12/18 07:03:56;;;;;;;39.00;17.25;;;-5.50;99.90;;;;;;5049796;28;20136;-72
2022/12/18 07:06:24;;;;;;;41.58;19.27;;;-5.40;99.90;;;;;;5046980;28;20116;-72
2022/12/18 07:08:51;;;;;;;41.17;17.98;;;-5.50;99.90;;;;;;5048277;28;20043;-73
2022/12/18 07:11:17;;;;;;;36.67;17.20;;;-5.50;99.90;;;;;;5057490;28;20056;-75
2022/12/18 07:13:43;;;;;;;48.53;19.25;;;-5.40;99.90;;;;;;5036245;28;20120;-72
2022/12/18 07:16:15;;;;;;;34.15;17.42;;;-5.40;99.90;;;;;;5034877;28;20512;-74
2022/12/18 07:18:41;;;;;;;39.45;17.55;;;-5.30;99.90;;;;;;5049455;28;20052;-74
2022/12/18 07:21:09;;;;;;;34.85;16.27;;;-2.50;99.90;;;;;;5042088;28;20410;-74
2022/12/18 07:23:35;;;;;;;36.72;18.77;;;-5.50;99.90;;;;;;5075327;28;20087;-74
2022/12/18 07:26:08;;;;;;;36.47;18.33;;;-3.80;99.90;;;;;;5034869;28;20076;-74
2022/12/18 07:28:35;;;;;;;38.30;17.55;;;-3.30;99.90;;;;;;5045482;28;20124;-76
2022/12/18 07:31:06;;;;;;;41.35;18.00;;;-5.60;99.90;;;;;;5026486;28;20555;-74
2022/12/18 07:33:33;;;;;;;40.88;17.30;;;-5.30;99.90;;;;;;5048243;28;20045;-74
2022/12/18 07:36:00;;;;;;;34.78;16.33;;;-5.90;99.90;;;;;;5030135;28;20616;-75
2022/12/18 07:38:26;;;;;;;39.20;16.48;;;-5.40;99.90;;;;;;5024174;28;20084;-73
2022/12/18 07:40:51;;;;;;;30.73;15.57;;;-6.00;99.90;;;;;;5034486;28;20048;-73
2022/12/18 07:43:17;;;;;;;38.25;16.17;;;-5.50;99.90;;;;;;5036489;28;20131;-73
2022/12/18 07:45:43;;;;;;;34.42;16.98;;;;;;;;;;5040641;28;20090;-73
2022/12/18 07:48:09;;;;;;;34.17;16.48;;;-5.20;99.90;;;;;;5052976;28;20242;-73
2022/12/18 07:50:35;;;;;;;29.83;15.57;;;-5.50;99.90;;;;;;5050293;28;20039;-73
2022/12/18 07:53:04;;;;;;;26.77;15.00;;;-5.70;99.90;;;;;;5042151;28;20496;-74
2022/12/18 07:55:31;;;;;;;33.33;16.10;;;-3.50;99.90;;;;;;5026413;28;20424;-73
2022/12/18 07:58:00;;;;;;;31.55;14.88;;;-5.50;99.90;;;;;;5048659;28;20049;-74
2022/12/18 08:00:25;;;;;;;35.78;17.98;;;-5.30;99.90;;;;;;5054651;28;20055;-73
2022/12/18 08:02:51;;;;;;;30.92;14.95;;;-5.20;99.90;;;;;;5039165;28;20128;-74
2022/12/18 08:05:17;;;;;;;32.15;15.30;;;-5.30;99.90;;;;;;5043540;28;20049;-73
2022/12/18 08:07:43;;;;;;;31.75;14.63;;;;;;;;;;5051725;28;20053;-73
2022/12/18 08:10:09;;;;;;;29.95;15.48;;;-5.10;99.90;;;;;;5048280;28;20044;-74
2022/12/18 08:12:34;;;;;;;31.88;14.73;;;-4.00;99.90;;;;;;5047324;28;20049;-73
2022/12/18 08:15:00;;;;;;;33.15;16.77;;;-6.90;99.90;;;;;;5044880;28;20045;-73
2022/12/18 08:17:26;;;;;;;44.42;24.98;;;-2.90;99.90;;;;;;5045775;28;20114;-72
2022/12/18 08:19:54;;;;;;;31.50;17.15;;;-3.10;99.90;;;;;;5044463;28;20080;-74
2022/12/18 08:22:20;;;;;;;32.65;16.55;;;-5.00;99.90;;;;;;5044349;28;20190;-74
2022/12/18 08:24:46;;;;;;;34.90;17.05;;;-5.10;99.90;;;;;;5023475;28;20046;-72
2022/12/18 08:27:12;;;;;;;29.92;16.38;;;-5.10;99.90;;;;;;5052478;28;20128;-74
2022/12/18 08:29:38;;;;;;;31.23;15.40;;;-3.10;99.90;;;;;;5028730;28;20040;-73
2022/12/18 08:32:04;;;;;;;28.33;16.02;;;-4.90;99.90;;;;;;5041664;28;20499;-73
2022/12/18 08:34:29;;;;;;;28.75;14.98;;;-5.00;99.90;;;;;;5041566;28;20408;-73
2022/12/18 08:36:55;;;;;;;28.63;14.18;;;-4.90;99.90;;;;;;5058612;28;20045;-72
2022/12/18 08:39:21;;;;;;;26.60;14.95;;;-4.70;99.90;;;;;;5042279;28;20119;-74
2022/12/18 08:44:37;;;;;;;31.55;14.27;;;-5.20;99.90;;;;;;5042583;28;20059;-75
2022/12/18 08:44:38;;;;;;;30.30;16.58;;;-5.20;99.90;;;;;;5048187;28;20480;-74
2022/12/18 08:47:05;;;;;;;23.10;13.95;;;-3.20;99.90;;;;;;5064250;28;20052;-72
2022/12/18 08:49:31;;;;;;;29.48;14.80;;;-2.40;99.90;;;;;;5027623;28;20041;-74
2022/12/18 08:51:57;;;;;;;28.45;14.82;;;-4.80;99.90;;;;;;5041503;28;20045;-73
2022/12/18 08:54:24;;;;;;;29.77;14.23;;;-3.70;99.90;;;;;;5027535;28;20048;-73
2022/12/18 08:56:49;;;;;;;29.73;15.02;;;-4.90;99.90;;;;;;5038377;28;20037;-74
2022/12/18 08:59:16;;;;;;;29.80;17.02;;;-4.70;99.90;;;;;;5034157;28;20672;-73
2022/12/18 09:01:42;;;;;;;31.45;18.25;;;-4.60;99.90;;;;;;5046073;28;20045;-73
2022/12/18 09:04:11;;;;;;;26.58;15.45;;;-4.60;99.90;;;;;;5024974;28;20033;-74
2022/12/18 09:06:37;;;;;;;24.15;13.43;;;-4.60;99.90;;;;;;5045370;28;20552;-74
2022/12/18 09:09:04;;;;;;;22.65;12.40;;;-4.60;99.90;;;;;;5047760;28;20484;-73
2022/12/18 09:11:31;;;;;;;27.75;15.25;;;-3.10;99.90;;;;;;5049196;28;20049;-74
2022/12/18 09:13:59;;;;;;;28.92;13.65;;;-4.30;99.90;;;;;;5045712;28;20077;-74
2022/12/18 09:16:27;;;;;;;23.25;12.98;;;-4.30;99.90;;;;;;5044127;28;20098;-74
2022/12/18 09:18:59;;;;;;;28.77;14.20;;;-4.40;99.90;;;;;;5050179;28;20037;-74
2022/12/18 09:21:27;;;;;;;26.23;14.30;;;-4.40;99.90;;;;;;5030744;28;20478;-75
2022/12/18 09:23:54;;;;;;;25.55;12.90;;;-4.30;99.90;;;;;;5031964;28;20040;-75
2022/12/18 09:26:21;;;;;;;23.17;12.23;;;-4.70;99.90;;;;;;5049608;28;20052;-75
2022/12/18 09:28:46;;;;;;;24.30;13.63;;;-5.00;99.90;;;;;;5050130;28;20115;-74
2022/12/18 09:31:17;;;;;;;24.20;13.45;;;-4.30;99.90;;;;;;5048252;28;20033;-76
2022/12/18 09:33:43;;;;;;;22.00;13.27;;;-4.20;99.90;;;;;;5046127;28;20102;-77
2022/12/18 09:36:11;;;;;;;22.48;12.68;;;-4.10;99.90;;;;;;5050208;28;20467;-74
2022/12/18 09:38:37;;;;;;;19.77;12.82;;;-4.20;99.90;;;;;;5049393;28;20094;-74
2022/12/18 09:41:27;;;;;;;26.58;12.05;;;-2.10;99.90;;;;;;5044970;28;20045;-76
2022/12/18 09:43:58;;;;;;;22.70;12.23;;;-4.00;99.90;;;;;;5026213;28;21616;-75
2022/12/18 09:46:29;;;;;;;22.30;12.63;;;-3.80;99.90;;;;;;5046120;28;20120;-75
2022/12/18 09:49:02;;;;;;;22.92;13.07;;;-2.60;99.90;;;;;;5025100;28;20044;-72
2022/12/18 09:51:57;;;;;;;62.47;14.57;;;-3.90;99.90;;;;;;5037881;28;20034;-76
2022/12/18 09:54:38;;;;;;;29.73;13.32;;;-3.50;99.90;;;;;;4991642;28;20080;-77
2022/12/18 09:57:04;;;;;;;25.42;14.18;;;-3.70;99.90;;;;;;5062218;28;20614;-75
2022/12/18 09:59:39;;;;;;;23.00;13.52;;;-3.70;99.90;;;;;;5041387;28;20068;-75
2022/12/18 10:02:18;;;;;;;20.58;13.40;;;-3.70;99.90;;;;;;5036560;28;20053;-74
2022/12/18 10:04:55;;;;;;;21.73;12.82;;;-3.70;99.90;;;;;;5043260;28;20041;-75
2022/12/18 10:07:35;;;;;;;19.67;12.43;;;-1.30;99.90;;;;;;5032446;28;20122;-75
2022/12/18 10:10:13;;;;;;;36.80;12.85;;;-4.10;99.90;;;;;;5032405;28;20049;-75
2022/12/18 10:12:50;;;;;;;24.65;13.05;;;-3.50;99.90;;;;;;5048224;28;20127;-73
2022/12/18 10:15:28;;;;;;;20.17;11.68;;;-3.60;99.90;;;;;;5047311;28;20041;-74
2022/12/18 10:18:03;;;;;;;29.42;14.68;;;-3.40;99.90;;;;;;5045372;28;20052;-72
2022/12/18 10:20:48;;;;;;;20.75;11.68;;;-3.60;99.90;;;;;;5044579;28;20630;-72
2022/12/18 10:23:14;;;;;;;27.02;12.05;;;-2.40;99.90;;;;;;5048052;28;20547;-77
2022/12/18 10:26:12;;;;;;;21.55;11.60;;;-3.50;99.90;;;;;;5048980;28;20076;-76
2022/12/18 10:28:40;;;;;;;23.70;11.23;;;-3.50;99.90;;;;;;5035865;28;20090;-76
2022/12/18 10:31:07;;;;;;;20.83;11.45;;;-2.20;99.90;;;;;;5048515;28;20201;-78
2022/12/18 10:33:34;;;;;;;18.88;10.65;;;-3.20;99.90;;;;;;5032223;28;20473;-78
2022/12/18 10:36:06;;;;;;;20.58;11.60;;;-3.50;99.90;;;;;;5050540;28;20073;-77
2022/12/18 10:38:32;;;;;;;16.63;10.07;;;-3.60;99.90;;;;;;5053823;28;20129;-78
2022/12/18 10:41:00;;;;;;;20.00;10.35;;;-3.50;99.90;;;;;;5052992;28;20041;-78
2022/12/18 10:43:27;;;;;;;18.00;10.45;;;-3.50;99.90;;;;;;5035439;28;20037;-77
2022/12/18 10:46:28;;;;;;;17.30;10.57;;;-1.50;99.90;;;;;;5048437;28;20053;-79
2022/12/18 10:48:56;;;;;;;15.02;8.93;;;-3.50;99.90;;;;;;5046052;28;20052;-77
2022/12/18 10:51:33;;;;;;;21.08;10.43;;;-3.30;99.90;;;;;;5023685;28;20590;-78
2022/12/18 10:54:12;;;;;;;21.23;11.52;;;-1.00;99.90;;;;;;5039371;28;20603;-78
2022/12/18 10:56:39;;;;;;;15.45;9.10;;;-0.50;99.90;;;;;;5015963;28;20080;-77
2022/12/18 10:59:07;;;;;;;14.10;9.35;;;-3.50;99.90;;;;;;5048301;28;20037;-77
2022/12/18 11:01:50;;;;;;;15.38;8.68;;;-3.40;99.90;;;;;;5047225;28;20041;-77
2022/12/18 11:04:19;;;;;;;15.45;8.82;;;-3.30;99.90;;;;;;5049506;28;20397;-78
2022/12/18 11:07:03;;;;;;;14.25;7.85;;;-0.60;99.90;;;;;;5031535;28;20048;-78
2022/12/18 11:09:33;;;;;;;12.25;7.93;;;-3.20;99.90;;;;;;5049692;28;20492;-78
2022/12/18 11:12:22;;;;;;;13.20;7.63;;;-3.10;99.90;;;;;;5046305;28;20076;-77
2022/12/18 11:14:57;;;;;;;13.35;7.60;;;-0.70;99.90;;;;;;5049569;28;20048;-78
2022/12/18 11:17:34;;;;;;;14.23;7.25;;;-3.10;99.90;;;;;;5032243;28;20136;-77
2022/12/18 11:20:03;;;;;;;16.13;8.18;;;-3.40;99.90;;;;;;5048383;28;20052;-79
2022/12/18 11:22:32;;;;;;;10.23;7.55;;;-2.60;99.90;;;;;;5048870;28;20480;-77
2022/12/18 11:25:05;;;;;;;13.98;7.90;;;-3.80;99.90;;;;;;5047714;28;20043;-77
2022/12/18 11:27:31;;;;;;;11.45;7.13;;;-0.70;99.90;;;;;;5047966;28;20456;-78
2022/12/18 11:30:21;;;;;;;12.70;7.15;;;-2.90;99.90;;;;;;5048477;28;20037;-78
2022/12/18 11:32:50;;;;;;;10.65;6.75;;;-2.90;99.90;;;;;;5046485;28;20047;-78
2022/12/18 11:35:44;;;;;;;14.68;7.43;;;-2.90;99.90;;;;;;5043729;28;20036;-77
2022/12/18 11:38:32;;;;;;;10.65;7.03;;;-2.80;99.90;;;;;;5080260;28;20045;-79
2022/12/18 11:41:14;;;;;;;11.13;6.93;;;-2.80;99.90;;;;;;5028734;28;20513;-77
2022/12/18 11:43:44;;;;;;;10.10;6.65;;;-2.80;99.90;;;;;;5030634;28;20045;-77
2022/12/18 11:46:35;;;;;;;11.95;7.28;;;-3.30;99.90;;;;;;5048470;28;20053;-78
2022/12/18 11:49:04;;;;;;;11.18;6.75;;;-1.90;99.90;;;;;;5030216;28;20100;-77
2022/12/18 11:51:38;;;;;;;13.50;6.93;;;-3.20;99.90;;;;;;5047416;28;20049;-76
2022/12/18 11:54:14;;;;;;;12.93;6.97;;;-3.10;99.90;;;;;;5026775;28;20455;-78
2022/12/18 11:57:10;;;;;;;12.35;6.72;;;-1.30;99.90;;;;;;5047703;28;20638;-78
2022/12/18 12:00:03;;;;;;;10.23;7.07;;;-2.70;99.90;;;;;;5038755;28;20118;-77
2022/12/18 12:02:53;;;;;;;10.00;6.20;;;-1.30;99.90;;;;;;5039243;28;20120;-79
2022/12/18 12:05:45;;;;;;;9.20;6.28;;;-2.60;99.90;;;;;;5040579;28;20041;-78
2022/12/18 12:08:11;;;;;;;8.82;6.28;;;-2.60;99.90;;;;;;5030769;28;20848;-78
2022/12/18 12:10:56;;;;;;;11.88;6.85;;;-3.00;99.90;;;;;;5028304;28;20040;-79
2022/12/18 12:13:54;;;;;;;8.02;6.03;;;-2.60;99.90;;;;;;5057501;28;20577;-77
2022/12/18 12:16:52;;;;;;;11.95;8.77;;;-2.50;99.90;;;;;;5037987;28;20103;-79
2022/12/18 12:19:48;;;;;;;12.20;7.85;;;-2.60;99.90;;;;;;5001547;28;20551;-79
2022/12/18 12:22:20;;;;;;;8.57;5.85;;;-2.50;99.90;;;;;;5076698;28;20063;-79
2022/12/18 12:25:01;;;;;;;10.43;6.32;;;-2.50;99.90;;;;;;5029528;28;20554;-79
2022/12/18 12:27:59;;;;;;;8.57;6.05;;;-2.50;99.90;;;;;;5023309;28;20066;-78
2022/12/18 12:30:39;;;;;;;13.98;7.38;;;-2.50;99.90;;;;;;5038947;28;20040;-79
2022/12/18 12:33:21;;;;;;;8.38;6.15;;;-2.50;99.90;;;;;;5018710;28;20128;-79
2022/12/18 12:36:15;;;;;;;18.02;11.02;;;-2.80;99.90;;;;;;5029011;28;20127;-79
2022/12/18 12:38:45;;;;;;;17.77;10.23;;;-2.40;99.90;;;;;;5032879;28;20520;-78
2022/12/18 12:44:06;;;;;;;10.90;6.63;;;-2.40;99.90;;;;;;5044602;28;20081;-76
2022/12/18 12:46:37;;;;;;;9.93;6.50;;;-2.30;99.90;;;;;;5044126;28;20503;-78
2022/12/18 12:49:09;;;;;;;10.85;6.78;;;-2.50;99.90;;;;;;5028694;28;20063;-76
2022/12/18 12:51:38;;;;;;;8.77;5.95;;;-3.10;99.90;;;;;;5044660;28;20136;-76
2022/12/18 12:54:11;;;;;;;16.92;9.48;;;-2.30;99.90;;;;;;5045611;28;20045;-78
2022/12/18 12:56:56;;;;;;;15.77;9.13;;;-2.50;99.90;;;;;;5039040;28;20471;-77